createdAt,value
2022-09-04T00:03:01.709Z,14.46
2022-09-04T00:05:53.481Z,14.42
2022-09-04T00:09:01.532Z,14.41
2022-09-04T00:12:08.781Z,14.24
2022-09-04T00:15:07.508Z,14.35
2022-09-04T00:18:08.305Z,14.32
2022-09-04T00:21:30.050Z,14.35
2022-09-04T00:24:20.000Z,14.25
2022-09-04T00:27:13.206Z,14.32
2022-09-04T00:30:07.888Z,14.32
2022-09-04T00:33:10.388Z,14.19
2022-09-04T00:36:02.121Z,13.95
2022-09-04T00:38:55.041Z,14.32
2022-09-04T00:42:02.580Z,14.15
2022-09-04T00:45:28.062Z,14.24
2022-09-04T00:48:37.306Z,14.18
2022-09-04T00:51:23.849Z,14.17
2022-09-04T00:54:37.062Z,14.18
2022-09-04T00:57:48.217Z,14.15
2022-09-04T01:00:36.499Z,13.72
2022-09-04T01:03:32.306Z,14.00
2022-09-04T01:06:50.925Z,14.15
2022-09-04T01:10:13.126Z,14.13
2022-09-04T01:13:39.710Z,14.16
2022-09-04T01:16:37.828Z,14.22
2022-09-04T01:19:36.108Z,14.15
2022-09-04T01:22:54.113Z,14.30
2022-09-04T01:26:18.027Z,14.37
2022-09-04T01:29:13.202Z,14.41
2022-09-04T01:32:17.945Z,14.43
2022-09-04T01:35:33.076Z,14.46
2022-09-04T01:38:22.276Z,14.49
2022-09-04T01:41:24.404Z,14.42
2022-09-04T01:44:12.328Z,14.34
2022-09-04T01:47:15.441Z,14.45
2022-09-04T01:50:10.789Z,14.26
2022-09-04T01:53:03.849Z,14.23
2022-09-04T01:56:04.307Z,14.38
2022-09-04T01:59:11.643Z,14.39
2022-09-04T02:02:13.389Z,14.37
2022-09-04T02:05:08.519Z,14.43
2022-09-04T02:08:13.894Z,14.44
2022-09-04T02:11:28.228Z,14.38
2022-09-04T02:14:24.225Z,14.34
2022-09-04T02:17:18.288Z,14.09
2022-09-04T02:20:21.741Z,14.37
2022-09-04T02:23:51.906Z,14.43
2022-09-04T02:27:00.053Z,14.23
2022-09-04T02:30:00.009Z,14.13
2022-09-04T02:33:18.573Z,14.27
2022-09-04T02:36:35.054Z,14.25
2022-09-04T02:39:42.050Z,14.24
2022-09-04T02:42:55.238Z,14.21
2022-09-04T02:46:02.643Z,14.25
2022-09-04T02:49:07.458Z,14.22
2022-09-04T02:52:18.574Z,14.20
2022-09-04T02:55:32.033Z,14.07
2022-09-04T02:58:36.245Z,13.95
2022-09-04T03:01:28.828Z,13.95
2022-09-04T03:04:31.872Z,14.06
2022-09-04T03:07:31.499Z,13.90
2022-09-04T03:10:20.656Z,13.87
2022-09-04T03:13:22.814Z,13.86
2022-09-04T03:16:53.903Z,13.99
2022-09-04T03:19:57.173Z,13.83
2022-09-04T03:22:58.649Z,14.01
2022-09-04T03:26:04.860Z,14.04
2022-09-04T03:29:10.197Z,13.95
2022-09-04T03:31:58.422Z,14.06
2022-09-04T03:34:56.114Z,13.81
2022-09-04T03:38:20.567Z,13.92
2022-09-04T03:41:13.937Z,13.80
2022-09-04T03:44:08.125Z,13.87
2022-09-04T03:47:05.066Z,13.90
2022-09-04T03:50:09.921Z,13.83
2022-09-04T03:53:09.199Z,13.80
2022-09-04T03:56:02.872Z,13.77
2022-09-04T03:59:02.354Z,13.71
2022-09-04T04:02:14.881Z,13.69
2022-09-04T04:05:36.882Z,13.59
2022-09-04T04:08:27.441Z,13.22
2022-09-04T04:11:29.459Z,13.46
2022-09-04T04:14:59.286Z,13.39
2022-09-04T04:18:13.328Z,13.37
2022-09-04T04:21:05.517Z,13.36
2022-09-04T04:24:09.550Z,13.35
2022-09-04T04:27:25.569Z,13.31
2022-09-04T04:30:16.947Z,13.28
2022-09-04T04:33:28.339Z,13.09
2022-09-04T04:36:45.530Z,13.18
2022-09-04T04:39:56.167Z,12.94
2022-09-04T04:42:48.370Z,13.12
2022-09-04T04:45:51.916Z,12.93
2022-09-04T04:48:57.246Z,13.08
2022-09-04T04:51:55.890Z,13.07
2022-09-04T04:55:13.153Z,13.08
2022-09-04T04:58:05.717Z,13.06
2022-09-04T05:01:21.629Z,13.07
2022-09-04T05:04:42.131Z,13.13
2022-09-04T05:07:46.114Z,13.17
2022-09-04T05:10:43.657Z,13.02
2022-09-04T05:13:56.478Z,13.09
2022-09-04T05:17:04.790Z,13.44
2022-09-04T05:20:00.597Z,13.28
2022-09-04T05:23:09.503Z,13.57
2022-09-04T05:26:33.571Z,13.61
2022-09-04T05:29:32.827Z,13.52
2022-09-04T05:32:39.549Z,13.46
2022-09-04T05:35:35.204Z,13.80
2022-09-04T05:38:46.363Z,13.85
2022-09-04T05:41:57.637Z,13.84
2022-09-04T05:44:52.706Z,13.88
2022-09-04T05:47:54.756Z,14.00
2022-09-04T05:50:53.410Z,14.17
2022-09-04T05:54:17.731Z,14.31
2022-09-04T05:57:41.973Z,14.45
2022-09-04T06:00:37.722Z,14.53
2022-09-04T06:04:02.498Z,14.46
2022-09-04T06:07:07.433Z,14.67
2022-09-04T06:10:08.845Z,14.79
2022-09-04T06:13:17.113Z,14.90
2022-09-04T06:16:39.058Z,14.76
2022-09-04T06:19:34.515Z,14.97
2022-09-04T06:22:48.096Z,14.98
2022-09-04T06:26:01.589Z,14.96
2022-09-04T06:29:05.274Z,14.94
2022-09-04T06:32:00.056Z,15.05
2022-09-04T06:35:09.596Z,15.14
2022-09-04T06:38:20.919Z,15.18
2022-09-04T06:41:22.724Z,15.26
2022-09-04T06:44:28.372Z,15.21
2022-09-04T06:47:30.038Z,15.27
2022-09-04T06:50:36.774Z,15.09
2022-09-04T06:53:29.405Z,15.30
2022-09-04T06:56:34.513Z,15.38
2022-09-04T06:59:47.190Z,15.49
2022-09-04T07:03:09.665Z,15.57
2022-09-04T07:06:04.496Z,15.53
2022-09-04T07:08:50.570Z,15.74
2022-09-04T07:12:13.054Z,15.60
2022-09-04T07:15:21.314Z,16.00
2022-09-04T07:18:41.457Z,16.10
2022-09-04T07:22:03.883Z,16.21
2022-09-04T07:25:05.806Z,16.14
2022-09-04T07:28:10.750Z,16.57
2022-09-04T07:31:04.370Z,16.55
2022-09-04T07:34:09.534Z,16.71
2022-09-04T07:37:27.839Z,16.88
2022-09-04T07:40:23.243Z,17.07
2022-09-04T07:43:30.148Z,17.14
2022-09-04T07:46:34.721Z,17.39
2022-09-04T07:49:43.255Z,17.57
2022-09-04T07:53:03.031Z,17.59
2022-09-04T07:55:58.698Z,17.66
2022-09-04T07:58:50.144Z,17.92
2022-09-04T08:02:00.964Z,18.13
2022-09-04T08:05:13.402Z,18.20
2022-09-04T08:08:09.762Z,18.44
2022-09-04T08:11:22.023Z,18.53
2022-09-04T08:14:19.033Z,18.69
2022-09-04T08:17:27.257Z,18.67
2022-09-04T08:20:38.534Z,18.74
2022-09-04T08:23:38.049Z,18.92
2022-09-04T08:26:43.142Z,19.03
2022-09-04T08:29:45.536Z,19.09
2022-09-04T08:33:10.181Z,19.28
2022-09-04T08:36:40.212Z,19.37
2022-09-04T08:39:34.597Z,19.28
2022-09-04T08:42:39.610Z,19.51
2022-09-04T08:45:44.442Z,19.67
2022-09-04T08:48:32.244Z,19.73
2022-09-04T08:51:40.006Z,19.95
2022-09-04T08:54:32.454Z,20.13
2022-09-04T08:57:58.517Z,20.14
2022-09-04T09:01:01.246Z,20.16
2022-09-04T09:03:57.937Z,20.22
2022-09-04T09:07:33.663Z,20.11
2022-09-04T09:10:47.898Z,20.61
2022-09-04T09:14:02.493Z,20.56
2022-09-04T09:17:02.948Z,20.42
2022-09-04T09:20:00.935Z,20.49
2022-09-04T09:23:26.414Z,20.76
2022-09-04T09:26:31.041Z,20.87
2022-09-04T09:29:29.545Z,20.98
2022-09-04T09:32:56.592Z,21.01
2022-09-04T09:35:57.829Z,21.04
2022-09-04T09:39:07.598Z,21.06
2022-09-04T09:42:21.390Z,21.03
2022-09-04T09:45:46.097Z,21.28
2022-09-04T09:48:47.537Z,21.37
2022-09-04T09:51:52.858Z,21.39
2022-09-04T09:55:17.107Z,21.68
2022-09-04T09:58:54.773Z,21.87
2022-09-04T10:01:54.761Z,22.06
2022-09-04T10:04:59.778Z,22.01
2022-09-04T10:08:01.331Z,22.22
2022-09-04T10:11:18.358Z,22.36
2022-09-04T10:14:27.892Z,22.39
2022-09-04T10:17:32.394Z,22.36
2022-09-04T10:20:30.705Z,22.24
2022-09-04T10:23:29.345Z,22.56
2022-09-04T10:26:15.836Z,22.94
2022-09-04T10:29:14.606Z,22.90
2022-09-04T10:32:19.458Z,23.03
2022-09-04T10:35:20.554Z,23.16
2022-09-04T10:38:38.376Z,23.39
2022-09-04T10:41:36.804Z,23.56
2022-09-04T10:44:41.670Z,23.63
2022-09-04T10:47:54.352Z,23.69
2022-09-04T10:50:54.858Z,23.85
2022-09-04T10:53:49.890Z,23.85
2022-09-04T10:56:54.266Z,23.62
2022-09-04T11:00:11.618Z,23.79
2022-09-04T11:03:11.350Z,23.68
2022-09-04T11:06:08.644Z,23.61
2022-09-04T11:09:02.385Z,23.57
2022-09-04T11:11:58.601Z,23.52
2022-09-04T11:14:56.810Z,23.58
2022-09-04T11:18:01.875Z,23.79
2022-09-04T11:21:14.543Z,23.90
2022-09-04T11:24:13.322Z,23.93
2022-09-04T11:27:15.729Z,24.16
2022-09-04T11:30:06.425Z,24.06
2022-09-04T11:33:04.966Z,24.29
2022-09-04T11:36:12.470Z,24.47
2022-09-04T11:39:32.730Z,24.54
2022-09-04T11:42:32.952Z,24.54
2022-09-04T11:45:32.223Z,24.74
2022-09-04T11:48:21.381Z,24.49
2022-09-04T11:51:17.813Z,24.37
2022-09-04T11:54:30.584Z,24.20
2022-09-04T11:57:44.311Z,24.04
2022-09-04T12:00:58.381Z,24.25
2022-09-04T12:04:06.584Z,24.20
2022-09-04T12:06:52.817Z,24.20
2022-09-04T12:10:09.202Z,24.34
2022-09-04T12:13:14.780Z,24.37
2022-09-04T12:16:42.237Z,24.44
2022-09-04T12:19:52.565Z,24.72
2022-09-04T12:22:54.539Z,24.88
2022-09-04T12:26:02.796Z,25.08
2022-09-04T12:29:20.849Z,25.13
2022-09-04T12:32:28.561Z,25.46
2022-09-04T12:35:43.870Z,25.51
2022-09-04T12:39:02.806Z,25.52
2022-09-04T12:42:12.869Z,25.71
2022-09-04T12:45:17.366Z,25.82
2022-09-04T12:48:33.179Z,26.03
2022-09-04T12:51:23.989Z,25.91
2022-09-04T12:54:37.110Z,26.05
2022-09-04T12:57:46.622Z,26.14
2022-09-04T13:00:48.685Z,26.34
2022-09-04T13:04:01.189Z,26.55
2022-09-04T13:07:20.981Z,26.82
2022-09-04T13:10:48.381Z,27.10
2022-09-04T13:14:07.530Z,27.32
2022-09-04T13:17:12.963Z,27.28
2022-09-04T13:20:38.946Z,27.54
2022-09-04T13:23:35.588Z,27.44
2022-09-04T13:26:37.948Z,27.56
2022-09-04T13:29:30.105Z,27.55
2022-09-04T13:32:22.575Z,27.36
2022-09-04T13:35:39.056Z,27.15
2022-09-04T13:38:48.580Z,27.44
2022-09-04T13:41:45.653Z,27.52
2022-09-04T13:44:56.872Z,27.31
2022-09-04T13:48:07.418Z,26.88
2022-09-04T13:51:01.843Z,27.09
2022-09-04T13:54:09.095Z,27.02
2022-09-04T13:57:04.264Z,27.18
2022-09-04T13:59:50.801Z,27.14
2022-09-04T14:02:39.101Z,27.00
2022-09-04T14:05:28.208Z,27.28
2022-09-04T14:08:21.129Z,27.38
2022-09-04T14:11:26.369Z,27.43
2022-09-04T14:14:33.201Z,27.44
2022-09-04T14:17:28.230Z,27.27
2022-09-04T14:20:45.282Z,27.03
2022-09-04T14:23:37.681Z,26.85
2022-09-04T14:26:33.374Z,26.72
2022-09-04T14:29:36.209Z,26.56
2022-09-04T14:32:28.287Z,26.32
2022-09-04T14:35:46.925Z,26.33
2022-09-04T14:39:09.546Z,26.11
2022-09-04T14:42:42.164Z,25.95
2022-09-04T14:46:15.099Z,25.77
2022-09-04T14:49:16.574Z,25.66
2022-09-04T14:52:16.615Z,25.53
2022-09-04T14:55:02.969Z,25.56
2022-09-04T14:58:08.199Z,25.62
2022-09-04T15:01:08.277Z,25.60
2022-09-04T15:04:19.050Z,25.21
2022-09-04T15:07:49.481Z,25.18
2022-09-04T15:10:47.647Z,25.12
2022-09-04T15:13:46.596Z,25.21
2022-09-04T15:16:39.227Z,25.18
2022-09-04T15:19:57.719Z,25.23
2022-09-04T15:23:01.440Z,25.10
2022-09-04T15:26:02.851Z,25.01
2022-09-04T15:28:54.873Z,25.08
2022-09-04T15:31:43.413Z,25.10
2022-09-04T15:34:30.884Z,24.88
2022-09-04T15:37:25.738Z,24.89
2022-09-04T15:40:24.522Z,24.91
2022-09-04T15:43:17.154Z,24.90
2022-09-04T15:46:09.524Z,24.89
2022-09-04T15:49:15.866Z,24.80
2022-09-04T15:52:22.051Z,24.77
2022-09-04T15:55:33.589Z,24.70
2022-09-04T15:58:29.314Z,24.51
2022-09-04T16:01:21.541Z,24.24
2022-09-04T16:04:23.310Z,24.55
2022-09-04T16:07:20.182Z,24.47
2022-09-04T16:10:15.602Z,24.43
2022-09-04T16:13:09.328Z,24.31
2022-09-04T16:16:12.456Z,24.14
2022-09-04T16:19:08.852Z,24.25
2022-09-04T16:22:22.993Z,24.25
2022-09-04T16:25:19.160Z,24.10
2022-09-04T16:28:19.935Z,23.96
2022-09-04T16:31:12.317Z,24.07
2022-09-04T16:34:05.944Z,23.78
2022-09-04T16:37:01.624Z,23.79
2022-09-04T16:40:21.660Z,23.96
2022-09-04T16:43:29.071Z,23.79
2022-09-04T16:46:29.499Z,23.79
2022-09-04T16:49:25.706Z,23.57
2022-09-04T16:52:36.762Z,23.68
2022-09-04T16:55:27.131Z,23.38
2022-09-04T16:58:19.792Z,23.34
2022-09-04T17:01:22.391Z,23.37
2022-09-04T17:04:40.243Z,23.04
2022-09-04T17:07:37.772Z,22.95
2022-09-04T17:10:36.361Z,22.97
2022-09-04T17:13:48.389Z,22.78
2022-09-04T17:17:22.850Z,22.47
2022-09-04T17:20:22.395Z,22.59
2022-09-04T17:28:55.574Z,22.61
2022-09-04T17:29:11.930Z,22.57
2022-09-04T17:29:51.787Z,22.44
2022-09-04T17:37:06.076Z,22.36
2022-09-04T17:40:51.892Z,21.87
2022-09-04T17:40:57.398Z,22.20
2022-09-04T17:43:23.263Z,21.86
2022-09-04T17:46:28.771Z,21.61
2022-09-04T17:49:26.647Z,21.37
2022-09-04T17:52:24.660Z,21.29
2022-09-04T17:55:13.109Z,20.91
2022-09-04T17:58:09.441Z,20.94
2022-09-04T18:01:15.547Z,20.52
2022-09-04T18:04:22.868Z,20.62
2022-09-04T18:08:09.484Z,20.52
2022-09-04T18:10:57.884Z,20.33
2022-09-04T18:14:23.035Z,20.30
2022-09-04T18:17:21.565Z,19.85
2022-09-04T18:20:19.661Z,19.75
2022-09-04T18:23:26.993Z,20.03
2022-09-04T18:26:22.494Z,19.88
2022-09-04T18:30:03.410Z,19.82
2022-09-04T18:37:08.058Z,19.62
2022-09-04T18:37:26.721Z,19.51
2022-09-04T18:39:24.062Z,19.34
2022-09-04T18:50:25.656Z,19.29
2022-09-04T18:50:48.581Z,19.03
2022-09-04T18:51:03.061Z,19.03
2022-09-04T18:51:58.262Z,18.88
2022-09-04T18:54:50.877Z,18.88
2022-09-04T18:57:49.213Z,18.51
2022-09-04T19:00:43.789Z,18.73
2022-09-04T19:03:47.884Z,18.85
2022-09-04T19:06:38.212Z,18.51
2022-09-04T19:09:30.913Z,18.85
2022-09-04T19:12:35.628Z,18.95
2022-09-04T19:15:37.337Z,19.01
2022-09-04T19:18:43.757Z,18.95
2022-09-04T19:21:58.211Z,18.78
2022-09-04T19:24:53.100Z,18.58
2022-09-04T19:27:44.026Z,18.61
2022-09-04T19:30:43.926Z,18.16
2022-09-04T19:33:44.693Z,17.79
2022-09-04T19:36:47.222Z,17.98
2022-09-04T19:45:54.772Z,18.03
2022-09-04T19:46:04.236Z,18.09
2022-09-04T19:46:52.775Z,18.01
2022-09-04T19:53:12.861Z,17.94
2022-09-04T19:53:24.173Z,17.69
2022-09-04T19:56:54.840Z,17.62
2022-09-04T19:59:57.826Z,17.67
2022-09-04T20:03:07.673Z,17.35
2022-09-04T20:06:21.479Z,17.28
2022-09-04T20:09:33.528Z,17.43
2022-09-04T20:12:42.148Z,17.43
2022-09-04T20:15:31.830Z,17.24
2022-09-04T20:18:26.134Z,17.27
2022-09-04T20:21:32.275Z,16.88
2022-09-04T20:24:24.414Z,17.18
2022-09-04T20:27:42.063Z,17.13
2022-09-04T20:30:30.839Z,16.81
2022-09-04T20:33:26.094Z,16.79
2022-09-04T20:36:15.498Z,16.77
2022-09-04T20:39:12.972Z,16.49
2022-09-04T20:42:04.409Z,16.76
2022-09-04T20:46:44.202Z,16.47
2022-09-04T20:52:57.192Z,16.54
2022-09-04T20:52:59.846Z,16.60
2022-09-04T20:54:47.870Z,16.51
2022-09-04T21:01:16.303Z,16.36
2022-09-04T21:03:08.846Z,16.37
2022-09-04T21:04:42.627Z,16.40
2022-09-04T21:07:44.771Z,15.99
2022-09-04T21:10:37.736Z,16.30
2022-09-04T21:13:29.878Z,16.26
2022-09-04T21:16:43.924Z,16.05
2022-09-04T21:20:05.601Z,15.84
2022-09-04T21:23:16.759Z,15.97
2022-09-04T21:26:28.177Z,15.95
2022-09-04T21:29:42.805Z,15.88
2022-09-04T21:32:45.080Z,15.84
2022-09-04T21:35:50.350Z,15.85
2022-09-04T21:39:19.617Z,15.79
2022-09-04T21:42:23.285Z,15.67
2022-09-04T21:45:38.429Z,15.56
2022-09-04T21:48:48.149Z,15.38
2022-09-04T21:51:51.036Z,15.45
2022-09-04T22:00:36.802Z,15.31
2022-09-04T22:02:37.647Z,15.30
2022-09-04T22:02:45.889Z,15.29
2022-09-04T22:05:09.614Z,15.24
2022-09-04T22:13:27.549Z,15.25
2022-09-04T22:13:41.780Z,15.14
2022-09-04T22:15:16.458Z,15.12
2022-09-04T22:18:25.057Z,15.01
2022-09-04T22:21:26.903Z,15.16
2022-09-04T22:24:30.309Z,15.09
2022-09-04T22:28:09.223Z,14.96
2022-09-04T22:31:16.075Z,15.02
2022-09-04T22:34:18.566Z,14.96
2022-09-04T22:37:29.863Z,14.96
2022-09-04T22:40:35.756Z,14.89
2022-09-04T22:43:49.675Z,14.70
2022-09-04T22:46:52.514Z,14.71
2022-09-04T22:49:57.773Z,14.55
2022-09-04T22:53:12.408Z,14.62
2022-09-04T22:56:23.472Z,14.48
2022-09-04T22:59:26.919Z,14.72
2022-09-04T23:03:04.145Z,14.65
2022-09-04T23:05:50.876Z,14.58
2022-09-04T23:13:49.106Z,14.48
2022-09-04T23:13:50.644Z,14.52
2022-09-04T23:15:59.896Z,14.38
2022-09-04T23:25:56.831Z,14.41
2022-09-04T23:26:45.501Z,14.35
2022-09-04T23:26:59.507Z,14.33
2022-09-04T23:30:05.240Z,14.27
2022-09-04T23:33:27.356Z,14.11
2022-09-04T23:36:47.098Z,14.20
2022-09-04T23:39:44.453Z,14.08
2022-09-04T23:42:56.404Z,14.08
2022-09-04T23:46:13.953Z,14.16
2022-09-04T23:49:37.684Z,14.10
2022-09-04T23:52:49.603Z,14.05
2022-09-04T23:56:10.066Z,14.04
2022-09-04T23:59:38.222Z,14.01
